sensor_id;sensor_type;location;lat;lon;timestamp;P1;durP1;ratioP1;P2;durP2;ratioP2
8230;SDS011;4156;50.908;6.974;2023-11-19T00:01:32;1.40;;;1.20;;
8230;SDS011;4156;50.908;6.974;2023-11-19T00:03:57;0.90;;;0.90;;
8230;SDS011;4156;50.908;6.974;2023-11-19T00:06:23;1.97;;;1.27;;
8230;SDS011;4156;50.908;6.974;2023-11-19T00:08:50;1.40;;;1.30;;
8230;SDS011;4156;50.908;6.974;2023-11-19T00:11:16;1.33;;;1.23;;
8230;SDS011;4156;50.908;6.974;2023-11-19T00:13:41;1.20;;;1.10;;
8230;SDS011;4156;50.908;6.974;2023-11-19T00:16:07;1.43;;;1.17;;
8230;SDS011;4156;50.908;6.974;2023-11-19T00:18:34;1.07;;;1.00;;
8230;SDS011;4156;50.908;6.974;2023-11-19T00:21:01;1.53;;;1.20;;
8230;SDS011;4156;50.908;6.974;2023-11-19T00:23:27;1.10;;;1.03;;
8230;SDS011;4156;50.908;6.974;2023-11-19T00:25:53;1.10;;;1.10;;
8230;SDS011;4156;50.908;6.974;2023-11-19T00:28:18;1.20;;;1.10;;
8230;SDS011;4156;50.908;6.974;2023-11-19T00:30:44;1.93;;;1.20;;
8230;SDS011;4156;50.908;6.974;2023-11-19T00:33:10;1.50;;;1.40;;
8230;SDS011;4156;50.908;6.974;2023-11-19T00:35:35;1.83;;;1.20;;
8230;SDS011;4156;50.908;6.974;2023-11-19T00:38:01;2.60;;;1.77;;
8230;SDS011;4156;50.908;6.974;2023-11-19T00:40:27;1.00;;;1.00;;
8230;SDS011;4156;50.908;6.974;2023-11-19T00:42:53;1.20;;;1.10;;
8230;SDS011;4156;50.908;6.974;2023-11-19T00:45:19;1.13;;;1.03;;
8230;SDS011;4156;50.908;6.974;2023-11-19T00:47:45;1.97;;;0.90;;
8230;SDS011;4156;50.908;6.974;2023-11-19T00:50:10;1.10;;;1.10;;
8230;SDS011;4156;50.908;6.974;2023-11-19T00:52:36;0.87;;;0.87;;
8230;SDS011;4156;50.908;6.974;2023-11-19T00:55:02;1.40;;;1.30;;
8230;SDS011;4156;50.908;6.974;2023-11-19T00:57:29;2.03;;;1.17;;
8230;SDS011;4156;50.908;6.974;2023-11-19T00:59:57;1.17;;;1.10;;
8230;SDS011;4156;50.908;6.974;2023-11-19T01:02:23;1.50;;;1.20;;
8230;SDS011;4156;50.908;6.974;2023-11-19T01:04:49;1.17;;;1.07;;
8230;SDS011;4156;50.908;6.974;2023-11-19T01:07:15;1.00;;;1.00;;
8230;SDS011;4156;50.908;6.974;2023-11-19T01:09:41;1.23;;;1.13;;
8230;SDS011;4156;50.908;6.974;2023-11-19T01:12:07;1.20;;;1.10;;
8230;SDS011;4156;50.908;6.974;2023-11-19T01:14:35;1.20;;;1.10;;
8230;SDS011;4156;50.908;6.974;2023-11-19T01:17:00;1.43;;;1.17;;
8230;SDS011;4156;50.908;6.974;2023-11-19T01:19:26;1.10;;;1.00;;
8230;SDS011;4156;50.908;6.974;2023-11-19T01:21:53;0.93;;;0.93;;
8230;SDS011;4156;50.908;6.974;2023-11-19T01:24:19;1.10;;;1.07;;
8230;SDS011;4156;50.908;6.974;2023-11-19T01:26:45;1.17;;;1.10;;
8230;SDS011;4156;50.908;6.974;2023-11-19T01:29:11;1.97;;;1.30;;
8230;SDS011;4156;50.908;6.974;2023-11-19T01:31:40;2.43;;;1.10;;
8230;SDS011;4156;50.908;6.974;2023-11-19T01:34:06;1.30;;;1.20;;
8230;SDS011;4156;50.908;6.974;2023-11-19T01:36:33;3.47;;;1.30;;
8230;SDS011;4156;50.908;6.974;2023-11-19T01:38:58;1.50;;;1.10;;
8230;SDS011;4156;50.908;6.974;2023-11-19T01:41:24;2.40;;;1.43;;
8230;SDS011;4156;50.908;6.974;2023-11-19T01:43:49;2.17;;;1.53;;
8230;SDS011;4156;50.908;6.974;2023-11-19T01:46:15;1.70;;;1.30;;
8230;SDS011;4156;50.908;6.974;2023-11-19T01:48:42;1.70;;;1.47;;
8230;SDS011;4156;50.908;6.974;2023-11-19T01:51:11;1.50;;;1.20;;
8230;SDS011;4156;50.908;6.974;2023-11-19T01:53:41;1.50;;;1.27;;
8230;SDS011;4156;50.908;6.974;2023-11-19T01:56:08;2.40;;;1.53;;
8230;SDS011;4156;50.908;6.974;2023-11-19T01:58:36;3.20;;;1.40;;
8230;SDS011;4156;50.908;6.974;2023-11-19T02:01:04;1.50;;;1.30;;
8230;SDS011;4156;50.908;6.974;2023-11-19T02:03:31;1.80;;;1.40;;
8230;SDS011;4156;50.908;6.974;2023-11-19T02:05:58;1.93;;;1.67;;
8230;SDS011;4156;50.908;6.974;2023-11-19T02:08:24;2.23;;;1.47;;
8230;SDS011;4156;50.908;6.974;2023-11-19T02:10:51;1.57;;;1.33;;
8230;SDS011;4156;50.908;6.974;2023-11-19T02:13:17;3.37;;;1.67;;
8230;SDS011;4156;50.908;6.974;2023-11-19T02:15:45;2.00;;;1.43;;
8230;SDS011;4156;50.908;6.974;2023-11-19T02:18:20;3.07;;;1.70;;
8230;SDS011;4156;50.908;6.974;2023-11-19T02:20:47;2.40;;;1.60;;
8230;SDS011;4156;50.908;6.974;2023-11-19T02:23:14;3.27;;;2.27;;
8230;SDS011;4156;50.908;6.974;2023-11-19T02:25:40;4.20;;;1.50;;
8230;SDS011;4156;50.908;6.974;2023-11-19T02:28:06;3.53;;;1.63;;
8230;SDS011;4156;50.908;6.974;2023-11-19T02:30:32;2.47;;;1.50;;
8230;SDS011;4156;50.908;6.974;2023-11-19T02:32:58;3.27;;;1.70;;
8230;SDS011;4156;50.908;6.974;2023-11-19T02:35:26;3.83;;;2.07;;
8230;SDS011;4156;50.908;6.974;2023-11-19T02:37:53;5.17;;;1.57;;
8230;SDS011;4156;50.908;6.974;2023-11-19T02:40:22;2.93;;;1.50;;
8230;SDS011;4156;50.908;6.974;2023-11-19T02:42:49;4.77;;;1.80;;
8230;SDS011;4156;50.908;6.974;2023-11-19T02:45:15;2.93;;;1.47;;
8230;SDS011;4156;50.908;6.974;2023-11-19T02:47:41;5.00;;;1.87;;
8230;SDS011;4156;50.908;6.974;2023-11-19T02:50:08;1.40;;;1.30;;
8230;SDS011;4156;50.908;6.974;2023-11-19T02:52:42;4.90;;;1.87;;
8230;SDS011;4156;50.908;6.974;2023-11-19T02:55:09;3.77;;;1.73;;
8230;SDS011;4156;50.908;6.974;2023-11-19T02:57:41;4.00;;;1.97;;
8230;SDS011;4156;50.908;6.974;2023-11-19T03:00:17;4.17;;;1.90;;
8230;SDS011;4156;50.908;6.974;2023-11-19T03:02:44;7.10;;;2.17;;
8230;SDS011;4156;50.908;6.974;2023-11-19T03:05:18;4.70;;;1.67;;
8230;SDS011;4156;50.908;6.974;2023-11-19T03:07:44;6.77;;;2.10;;
8230;SDS011;4156;50.908;6.974;2023-11-19T03:10:10;4.60;;;2.10;;
8230;SDS011;4156;50.908;6.974;2023-11-19T03:12:43;3.87;;;1.97;;
8230;SDS011;4156;50.908;6.974;2023-11-19T03:15:10;7.17;;;1.97;;
8230;SDS011;4156;50.908;6.974;2023-11-19T03:17:38;5.03;;;2.70;;
8230;SDS011;4156;50.908;6.974;2023-11-19T03:20:05;5.43;;;1.90;;
8230;SDS011;4156;50.908;6.974;2023-11-19T03:22:32;6.17;;;1.90;;
8230;SDS011;4156;50.908;6.974;2023-11-19T03:25:00;6.60;;;2.07;;
8230;SDS011;4156;50.908;6.974;2023-11-19T03:27:26;6.73;;;2.23;;
8230;SDS011;4156;50.908;6.974;2023-11-19T03:29:51;4.10;;;2.10;;
8230;SDS011;4156;50.908;6.974;2023-11-19T03:32:17;6.90;;;2.97;;
8230;SDS011;4156;50.908;6.974;2023-11-19T03:34:42;6.27;;;2.20;;
8230;SDS011;4156;50.908;6.974;2023-11-19T03:37:08;6.13;;;2.13;;
8230;SDS011;4156;50.908;6.974;2023-11-19T03:39:33;7.73;;;2.80;;
8230;SDS011;4156;50.908;6.974;2023-11-19T03:41:59;7.43;;;2.37;;
8230;SDS011;4156;50.908;6.974;2023-11-19T03:44:25;11.27;;;2.50;;
8230;SDS011;4156;50.908;6.974;2023-11-19T03:46:52;7.23;;;2.90;;
8230;SDS011;4156;50.908;6.974;2023-11-19T03:49:17;8.93;;;2.17;;
8230;SDS011;4156;50.908;6.974;2023-11-19T03:51:43;7.10;;;2.33;;
8230;SDS011;4156;50.908;6.974;2023-11-19T03:54:08;8.43;;;3.00;;
8230;SDS011;4156;50.908;6.974;2023-11-19T03:56:34;5.23;;;2.20;;
8230;SDS011;4156;50.908;6.974;2023-11-19T03:59:00;7.63;;;2.63;;
8230;SDS011;4156;50.908;6.974;2023-11-19T04:01:26;7.30;;;2.33;;
8230;SDS011;4156;50.908;6.974;2023-11-19T04:03:51;9.87;;;2.73;;
8230;SDS011;4156;50.908;6.974;2023-11-19T04:06:17;9.93;;;2.53;;
8230;SDS011;4156;50.908;6.974;2023-11-19T04:08:42;5.97;;;2.50;;
8230;SDS011;4156;50.908;6.974;2023-11-19T04:11:08;5.90;;;2.07;;
8230;SDS011;4156;50.908;6.974;2023-11-19T04:13:34;5.20;;;2.13;;
8230;SDS011;4156;50.908;6.974;2023-11-19T04:15:59;6.73;;;2.47;;
8230;SDS011;4156;50.908;6.974;2023-11-19T04:18:26;4.53;;;2.10;;
8230;SDS011;4156;50.908;6.974;2023-11-19T04:20:52;10.63;;;2.63;;
8230;SDS011;4156;50.908;6.974;2023-11-19T04:23:17;6.77;;;2.37;;
8230;SDS011;4156;50.908;6.974;2023-11-19T04:25:43;10.00;;;2.37;;
8230;SDS011;4156;50.908;6.974;2023-11-19T04:28:09;4.97;;;2.50;;
8230;SDS011;4156;50.908;6.974;2023-11-19T04:30:34;6.53;;;2.00;;
8230;SDS011;4156;50.908;6.974;2023-11-19T04:33:00;8.50;;;2.93;;
8230;SDS011;4156;50.908;6.974;2023-11-19T04:35:26;7.60;;;1.87;;
8230;SDS011;4156;50.908;6.974;2023-11-19T04:37:51;7.93;;;2.50;;
8230;SDS011;4156;50.908;6.974;2023-11-19T04:40:17;11.93;;;2.47;;
8230;SDS011;4156;50.908;6.974;2023-11-19T04:42:47;5.83;;;2.17;;
8230;SDS011;4156;50.908;6.974;2023-11-19T04:45:13;9.53;;;2.67;;
8230;SDS011;4156;50.908;6.974;2023-11-19T04:47:38;8.70;;;2.80;;
8230;SDS011;4156;50.908;6.974;2023-11-19T04:50:04;14.10;;;3.27;;
8230;SDS011;4156;50.908;6.974;2023-11-19T04:52:30;7.90;;;2.60;;
8230;SDS011;4156;50.908;6.974;2023-11-19T04:54:55;9.30;;;3.17;;
8230;SDS011;4156;50.908;6.974;2023-11-19T04:57:21;9.03;;;2.73;;
8230;SDS011;4156;50.908;6.974;2023-11-19T04:59:46;10.63;;;2.60;;
8230;SDS011;4156;50.908;6.974;2023-11-19T05:02:12;9.63;;;2.63;;
8230;SDS011;4156;50.908;6.974;2023-11-19T05:04:41;6.77;;;2.57;;
8230;SDS011;4156;50.908;6.974;2023-11-19T05:07:09;10.37;;;3.80;;
8230;SDS011;4156;50.908;6.974;2023-11-19T05:09:34;8.03;;;3.07;;
8230;SDS011;4156;50.908;6.974;2023-11-19T05:12:00;7.73;;;2.50;;
8230;SDS011;4156;50.908;6.974;2023-11-19T05:14:27;8.83;;;3.00;;
8230;SDS011;4156;50.908;6.974;2023-11-19T05:16:53;9.63;;;2.87;;
8230;SDS011;4156;50.908;6.974;2023-11-19T05:19:18;5.50;;;2.63;;
8230;SDS011;4156;50.908;6.974;2023-11-19T05:21:44;5.23;;;2.27;;
8230;SDS011;4156;50.908;6.974;2023-11-19T05:24:09;7.67;;;2.90;;
8230;SDS011;4156;50.908;6.974;2023-11-19T05:26:36;12.63;;;3.03;;
8230;SDS011;4156;50.908;6.974;2023-11-19T05:29:02;10.03;;;2.73;;
8230;SDS011;4156;50.908;6.974;2023-11-19T05:31:28;7.63;;;2.50;;
8230;SDS011;4156;50.908;6.974;2023-11-19T05:33:54;8.60;;;2.50;;
8230;SDS011;4156;50.908;6.974;2023-11-19T05:36:19;6.47;;;2.40;;
8230;SDS011;4156;50.908;6.974;2023-11-19T05:38:45;6.90;;;2.90;;
8230;SDS011;4156;50.908;6.974;2023-11-19T05:41:10;7.73;;;2.53;;
8230;SDS011;4156;50.908;6.974;2023-11-19T05:43:36;9.37;;;2.53;;
8230;SDS011;4156;50.908;6.974;2023-11-19T05:46:02;7.17;;;3.23;;
8230;SDS011;4156;50.908;6.974;2023-11-19T05:48:28;10.87;;;3.20;;
8230;SDS011;4156;50.908;6.974;2023-11-19T05:50:54;11.47;;;2.70;;
8230;SDS011;4156;50.908;6.974;2023-11-19T05:53:20;11.23;;;2.60;;
8230;SDS011;4156;50.908;6.974;2023-11-19T05:55:45;9.23;;;2.57;;
8230;SDS011;4156;50.908;6.974;2023-11-19T05:58:14;15.33;;;3.53;;
8230;SDS011;4156;50.908;6.974;2023-11-19T06:00:40;8.30;;;3.47;;
8230;SDS011;4156;50.908;6.974;2023-11-19T06:03:09;9.63;;;3.00;;
8230;SDS011;4156;50.908;6.974;2023-11-19T06:05:35;14.50;;;3.60;;
8230;SDS011;4156;50.908;6.974;2023-11-19T06:08:01;15.93;;;3.30;;
8230;SDS011;4156;50.908;6.974;2023-11-19T06:10:26;10.97;;;2.63;;
8230;SDS011;4156;50.908;6.974;2023-11-19T06:12:57;15.97;;;3.20;;
8230;SDS011;4156;50.908;6.974;2023-11-19T06:15:24;14.53;;;3.60;;
8230;SDS011;4156;50.908;6.974;2023-11-19T06:17:53;14.83;;;3.47;;
8230;SDS011;4156;50.908;6.974;2023-11-19T06:20:19;13.63;;;3.20;;
8230;SDS011;4156;50.908;6.974;2023-11-19T06:22:45;11.83;;;3.50;;
8230;SDS011;4156;50.908;6.974;2023-11-19T06:25:11;12.50;;;3.43;;
8230;SDS011;4156;50.908;6.974;2023-11-19T06:27:39;12.80;;;3.47;;
8230;SDS011;4156;50.908;6.974;2023-11-19T06:30:07;17.10;;;3.57;;
8230;SDS011;4156;50.908;6.974;2023-11-19T06:32:34;10.13;;;3.10;;
8230;SDS011;4156;50.908;6.974;2023-11-19T06:34:59;8.77;;;2.67;;
8230;SDS011;4156;50.908;6.974;2023-11-19T06:37:25;12.90;;;4.30;;
8230;SDS011;4156;50.908;6.974;2023-11-19T06:39:52;12.47;;;3.83;;
8230;SDS011;4156;50.908;6.974;2023-11-19T06:42:17;13.57;;;2.93;;
8230;SDS011;4156;50.908;6.974;2023-11-19T06:44:43;11.13;;;3.13;;
8230;SDS011;4156;50.908;6.974;2023-11-19T06:47:08;11.30;;;2.50;;
8230;SDS011;4156;50.908;6.974;2023-11-19T06:49:34;13.53;;;3.77;;
8230;SDS011;4156;50.908;6.974;2023-11-19T06:51:59;15.83;;;3.40;;
8230;SDS011;4156;50.908;6.974;2023-11-19T06:54:25;16.53;;;3.37;;
8230;SDS011;4156;50.908;6.974;2023-11-19T06:56:50;12.63;;;3.20;;
8230;SDS011;4156;50.908;6.974;2023-11-19T06:59:16;12.47;;;3.57;;
8230;SDS011;4156;50.908;6.974;2023-11-19T07:01:41;12.43;;;3.67;;
8230;SDS011;4156;50.908;6.974;2023-11-19T07:04:10;18.53;;;3.13;;
8230;SDS011;4156;50.908;6.974;2023-11-19T07:06:37;8.43;;;3.53;;
8230;SDS011;4156;50.908;6.974;2023-11-19T07:09:06;14.83;;;4.13;;
8230;SDS011;4156;50.908;6.974;2023-11-19T07:11:35;12.10;;;4.10;;
8230;SDS011;4156;50.908;6.974;2023-11-19T07:14:02;13.07;;;4.00;;
8230;SDS011;4156;50.908;6.974;2023-11-19T07:16:28;14.23;;;3.50;;
8230;SDS011;4156;50.908;6.974;2023-11-19T07:18:53;17.23;;;4.03;;
8230;SDS011;4156;50.908;6.974;2023-11-19T07:21:19;10.90;;;3.60;;
8230;SDS011;4156;50.908;6.974;2023-11-19T07:23:44;8.27;;;3.03;;
8230;SDS011;4156;50.908;6.974;2023-11-19T07:26:11;17.07;;;3.97;;
8230;SDS011;4156;50.908;6.974;2023-11-19T07:28:37;10.77;;;3.20;;
8230;SDS011;4156;50.908;6.974;2023-11-19T07:31:04;8.23;;;2.67;;
8230;SDS011;4156;50.908;6.974;2023-11-19T07:33:33;11.93;;;3.73;;
8230;SDS011;4156;50.908;6.974;2023-11-19T07:35:58;9.30;;;2.67;;
8230;SDS011;4156;50.908;6.974;2023-11-19T07:38:24;13.17;;;3.60;;
8230;SDS011;4156;50.908;6.974;2023-11-19T07:40:49;9.53;;;2.87;;
8230;SDS011;4156;50.908;6.974;2023-11-19T07:43:15;8.33;;;2.83;;
8230;SDS011;4156;50.908;6.974;2023-11-19T07:45:41;8.77;;;2.93;;
8230;SDS011;4156;50.908;6.974;2023-11-19T07:48:08;11.47;;;3.57;;
8230;SDS011;4156;50.908;6.974;2023-11-19T07:50:34;10.27;;;3.67;;
8230;SDS011;4156;50.908;6.974;2023-11-19T07:52:59;13.80;;;3.47;;
8230;SDS011;4156;50.908;6.974;2023-11-19T07:55:27;9.07;;;3.33;;
8230;SDS011;4156;50.908;6.974;2023-11-19T07:57:52;10.10;;;3.50;;
8230;SDS011;4156;50.908;6.974;2023-11-19T08:00:18;11.80;;;2.80;;
8230;SDS011;4156;50.908;6.974;2023-11-19T08:02:44;10.47;;;3.03;;
8230;SDS011;4156;50.908;6.974;2023-11-19T08:05:10;10.60;;;3.30;;
8230;SDS011;4156;50.908;6.974;2023-11-19T08:07:36;11.83;;;3.53;;
8230;SDS011;4156;50.908;6.974;2023-11-19T08:10:02;13.47;;;3.73;;
8230;SDS011;4156;50.908;6.974;2023-11-19T08:12:30;10.20;;;3.17;;
8230;SDS011;4156;50.908;6.974;2023-11-19T08:14:56;10.13;;;3.10;;
8230;SDS011;4156;50.908;6.974;2023-11-19T08:17:23;13.30;;;3.47;;
8230;SDS011;4156;50.908;6.974;2023-11-19T08:19:49;13.70;;;3.37;;
8230;SDS011;4156;50.908;6.974;2023-11-19T08:22:16;13.33;;;3.50;;
8230;SDS011;4156;50.908;6.974;2023-11-19T08:24:41;10.93;;;3.60;;
8230;SDS011;4156;50.908;6.974;2023-11-19T08:27:08;10.60;;;2.70;;
8230;SDS011;4156;50.908;6.974;2023-11-19T08:29:33;13.20;;;4.00;;
8230;SDS011;4156;50.908;6.974;2023-11-19T08:32:00;10.70;;;3.60;;
8230;SDS011;4156;50.908;6.974;2023-11-19T08:34:27;13.10;;;3.33;;
8230;SDS011;4156;50.908;6.974;2023-11-19T08:36:52;11.70;;;3.20;;
8230;SDS011;4156;50.908;6.974;2023-11-19T08:39:18;12.47;;;3.27;;
8230;SDS011;4156;50.908;6.974;2023-11-19T08:41:46;13.00;;;3.40;;
8230;SDS011;4156;50.908;6.974;2023-11-19T08:44:12;15.37;;;3.20;;
8230;SDS011;4156;50.908;6.974;2023-11-19T08:46:37;9.87;;;2.63;;
8230;SDS011;4156;50.908;6.974;2023-11-19T08:49:04;11.73;;;3.03;;
8230;SDS011;4156;50.908;6.974;2023-11-19T08:51:30;13.87;;;3.47;;
8230;SDS011;4156;50.908;6.974;2023-11-19T08:53:56;13.30;;;3.37;;
8230;SDS011;4156;50.908;6.974;2023-11-19T08:56:22;15.47;;;3.20;;
8230;SDS011;4156;50.908;6.974;2023-11-19T08:58:48;10.53;;;2.93;;
8230;SDS011;4156;50.908;6.974;2023-11-19T09:01:13;10.27;;;3.03;;
8230;SDS011;4156;50.908;6.974;2023-11-19T09:03:39;12.87;;;3.40;;
8230;SDS011;4156;50.908;6.974;2023-11-19T09:06:05;11.13;;;3.43;;
8230;SDS011;4156;50.908;6.974;2023-11-19T09:08:31;9.67;;;3.00;;
8230;SDS011;4156;50.908;6.974;2023-11-19T09:10:56;13.00;;;3.20;;
8230;SDS011;4156;50.908;6.974;2023-11-19T09:13:22;14.30;;;3.63;;
8230;SDS011;4156;50.908;6.974;2023-11-19T09:15:48;11.00;;;3.33;;
8230;SDS011;4156;50.908;6.974;2023-11-19T09:18:13;14.13;;;4.37;;
8230;SDS011;4156;50.908;6.974;2023-11-19T09:20:39;22.47;;;4.23;;
8230;SDS011;4156;50.908;6.974;2023-11-19T09:23:05;12.07;;;3.57;;
8230;SDS011;4156;50.908;6.974;2023-11-19T09:25:31;12.60;;;3.23;;
8230;SDS011;4156;50.908;6.974;2023-11-19T09:27:56;20.40;;;3.80;;
8230;SDS011;4156;50.908;6.974;2023-11-19T09:30:22;9.73;;;3.10;;
8230;SDS011;4156;50.908;6.974;2023-11-19T09:32:48;14.40;;;3.10;;
8230;SDS011;4156;50.908;6.974;2023-11-19T09:35:13;11.53;;;3.10;;
8230;SDS011;4156;50.908;6.974;2023-11-19T09:37:39;17.73;;;4.03;;
8230;SDS011;4156;50.908;6.974;2023-11-19T09:40:05;20.07;;;4.77;;
8230;SDS011;4156;50.908;6.974;2023-11-19T09:42:35;12.07;;;3.23;;
8230;SDS011;4156;50.908;6.974;2023-11-19T09:45:07;16.47;;;3.93;;
8230;SDS011;4156;50.908;6.974;2023-11-19T09:47:38;14.53;;;3.33;;
8230;SDS011;4156;50.908;6.974;2023-11-19T09:50:04;13.07;;;3.27;;
8230;SDS011;4156;50.908;6.974;2023-11-19T09:52:30;10.63;;;3.23;;
8230;SDS011;4156;50.908;6.974;2023-11-19T09:54:56;11.43;;;3.37;;
8230;SDS011;4156;50.908;6.974;2023-11-19T09:57:21;12.13;;;3.20;;
8230;SDS011;4156;50.908;6.974;2023-11-19T09:59:47;11.17;;;3.60;;
8230;SDS011;4156;50.908;6.974;2023-11-19T10:02:15;14.63;;;3.43;;
8230;SDS011;4156;50.908;6.974;2023-11-19T10:04:42;13.60;;;3.20;;
8230;SDS011;4156;50.908;6.974;2023-11-19T10:07:09;12.87;;;3.63;;
8230;SDS011;4156;50.908;6.974;2023-11-19T10:09:34;11.43;;;3.20;;
8230;SDS011;4156;50.908;6.974;2023-11-19T10:12:00;11.23;;;3.10;;
8230;SDS011;4156;50.908;6.974;2023-11-19T10:14:26;14.23;;;3.57;;
8230;SDS011;4156;50.908;6.974;2023-11-19T10:16:54;16.27;;;3.53;;
8230;SDS011;4156;50.908;6.974;2023-11-19T10:19:20;12.83;;;3.77;;
8230;SDS011;4156;50.908;6.974;2023-11-19T10:21:46;16.63;;;3.20;;
8230;SDS011;4156;50.908;6.974;2023-11-19T10:24:12;15.17;;;3.57;;
8230;SDS011;4156;50.908;6.974;2023-11-19T10:26:37;12.97;;;3.13;;
8230;SDS011;4156;50.908;6.974;2023-11-19T10:29:03;13.70;;;3.47;;
8230;SDS011;4156;50.908;6.974;2023-11-19T10:31:29;14.63;;;3.40;;
8230;SDS011;4156;50.908;6.974;2023-11-19T10:33:55;13.53;;;3.97;;
8230;SDS011;4156;50.908;6.974;2023-11-19T10:36:21;13.57;;;3.30;;
8230;SDS011;4156;50.908;6.974;2023-11-19T10:38:56;16.80;;;3.90;;
8230;SDS011;4156;50.908;6.974;2023-11-19T10:41:28;15.13;;;4.30;;
8230;SDS011;4156;50.908;6.974;2023-11-19T10:43:57;18.67;;;3.80;;
8230;SDS011;4156;50.908;6.974;2023-11-19T10:46:36;11.70;;;3.53;;
8230;SDS011;4156;50.908;6.974;2023-11-19T10:49:04;13.97;;;3.70;;
8230;SDS011;4156;50.908;6.974;2023-11-19T10:51:31;10.80;;;3.07;;
8230;SDS011;4156;50.908;6.974;2023-11-19T10:53:58;14.30;;;3.40;;
8230;SDS011;4156;50.908;6.974;2023-11-19T10:56:31;10.40;;;3.30;;
8230;SDS011;4156;50.908;6.974;2023-11-19T10:59:02;16.43;;;3.43;;
8230;SDS011;4156;50.908;6.974;2023-11-19T11:01:34;10.33;;;2.73;;
8230;SDS011;4156;50.908;6.974;2023-11-19T11:04:12;12.20;;;3.17;;
8230;SDS011;4156;50.908;6.974;2023-11-19T11:06:40;11.80;;;3.00;;
8230;SDS011;4156;50.908;6.974;2023-11-19T11:09:06;11.90;;;3.23;;
8230;SDS011;4156;50.908;6.974;2023-11-19T11:11:37;14.60;;;3.27;;
8230;SDS011;4156;50.908;6.974;2023-11-19T11:14:03;12.17;;;2.93;;
8230;SDS011;4156;50.908;6.974;2023-11-19T11:16:30;12.53;;;3.23;;
8230;SDS011;4156;50.908;6.974;2023-11-19T11:18:56;19.90;;;5.07;;
8230;SDS011;4156;50.908;6.974;2023-11-19T11:21:23;27.73;;;9.43;;
8230;SDS011;4156;50.908;6.974;2023-11-19T11:32:43;19.87;;;6.13;;
8230;SDS011;4156;50.908;6.974;2023-11-19T11:35:23;15.10;;;4.70;;
8230;SDS011;4156;50.908;6.974;2023-11-19T11:37:56;22.20;;;5.30;;
8230;SDS011;4156;50.908;6.974;2023-11-19T11:40:28;22.63;;;5.23;;
8230;SDS011;4156;50.908;6.974;2023-11-19T11:42:53;16.83;;;5.13;;
8230;SDS011;4156;50.908;6.974;2023-11-19T11:45:19;15.10;;;4.57;;
8230;SDS011;4156;50.908;6.974;2023-11-19T11:48:07;14.43;;;3.60;;
8230;SDS011;4156;50.908;6.974;2023-11-19T11:50:36;16.23;;;4.07;;
8230;SDS011;4156;50.908;6.974;2023-11-19T11:53:23;15.50;;;3.90;;
8230;SDS011;4156;50.908;6.974;2023-11-19T11:58:21;15.23;;;3.23;;
8230;SDS011;4156;50.908;6.974;2023-11-19T12:00:50;12.80;;;3.63;;
8230;SDS011;4156;50.908;6.974;2023-11-19T12:03:18;10.20;;;2.97;;
8230;SDS011;4156;50.908;6.974;2023-11-19T12:05:47;10.23;;;3.03;;
8230;SDS011;4156;50.908;6.974;2023-11-19T12:08:13;7.93;;;3.03;;
8230;SDS011;4156;50.908;6.974;2023-11-19T12:10:48;8.90;;;2.53;;
8230;SDS011;4156;50.908;6.974;2023-11-19T12:13:15;9.30;;;2.80;;
8230;SDS011;4156;50.908;6.974;2023-11-19T12:18:28;8.60;;;3.00;;
8230;SDS011;4156;50.908;6.974;2023-11-19T12:20:55;8.53;;;2.37;;
8230;SDS011;4156;50.908;6.974;2023-11-19T12:23:22;8.03;;;2.77;;
8230;SDS011;4156;50.908;6.974;2023-11-19T12:25:48;8.60;;;2.33;;
8230;SDS011;4156;50.908;6.974;2023-11-19T12:28:14;12.87;;;2.77;;
8230;SDS011;4156;50.908;6.974;2023-11-19T12:30:43;11.93;;;2.27;;
8230;SDS011;4156;50.908;6.974;2023-11-19T12:33:10;9.00;;;2.83;;
8230;SDS011;4156;50.908;6.974;2023-11-19T12:38:19;8.63;;;2.40;;
8230;SDS011;4156;50.908;6.974;2023-11-19T12:41:07;9.27;;;2.57;;
8230;SDS011;4156;50.908;6.974;2023-11-19T12:43:38;9.13;;;2.67;;
8230;SDS011;4156;50.908;6.974;2023-11-19T12:46:20;10.43;;;3.27;;
8230;SDS011;4156;50.908;6.974;2023-11-19T12:48:49;11.43;;;2.63;;
8230;SDS011;4156;50.908;6.974;2023-11-19T12:51:16;9.17;;;2.57;;
8230;SDS011;4156;50.908;6.974;2023-11-19T12:53:49;10.20;;;2.83;;
8230;SDS011;4156;50.908;6.974;2023-11-19T12:56:15;6.87;;;2.23;;
8230;SDS011;4156;50.908;6.974;2023-11-19T12:58:41;5.30;;;2.20;;
8230;SDS011;4156;50.908;6.974;2023-11-19T13:01:08;10.40;;;2.70;;
8230;SDS011;4156;50.908;6.974;2023-11-19T13:03:37;10.47;;;2.40;;
8230;SDS011;4156;50.908;6.974;2023-11-19T13:06:07;5.10;;;2.00;;
8230;SDS011;4156;50.908;6.974;2023-11-19T13:08:37;9.30;;;2.50;;
8230;SDS011;4156;50.908;6.974;2023-11-19T13:11:04;9.87;;;2.60;;
8230;SDS011;4156;50.908;6.974;2023-11-19T13:13:31;10.60;;;3.17;;
8230;SDS011;4156;50.908;6.974;2023-11-19T13:16:03;8.20;;;2.23;;
8230;SDS011;4156;50.908;6.974;2023-11-19T13:18:33;11.00;;;3.10;;
8230;SDS011;4156;50.908;6.974;2023-11-19T13:20:59;8.37;;;2.27;;
8230;SDS011;4156;50.908;6.974;2023-11-19T13:23:25;10.10;;;2.87;;
8230;SDS011;4156;50.908;6.974;2023-11-19T13:25:51;10.90;;;2.70;;
8230;SDS011;4156;50.908;6.974;2023-11-19T13:28:17;6.63;;;2.50;;
8230;SDS011;4156;50.908;6.974;2023-11-19T13:30:42;7.77;;;2.53;;
8230;SDS011;4156;50.908;6.974;2023-11-19T13:33:08;12.83;;;2.70;;
8230;SDS011;4156;50.908;6.974;2023-11-19T13:35:37;12.27;;;3.20;;
8230;SDS011;4156;50.908;6.974;2023-11-19T13:38:05;9.73;;;2.80;;
8230;SDS011;4156;50.908;6.974;2023-11-19T13:40:30;12.27;;;3.37;;
8230;SDS011;4156;50.908;6.974;2023-11-19T13:42:56;10.40;;;3.43;;
8230;SDS011;4156;50.908;6.974;2023-11-19T13:45:21;9.90;;;3.00;;
8230;SDS011;4156;50.908;6.974;2023-11-19T13:47:47;9.90;;;3.50;;
8230;SDS011;4156;50.908;6.974;2023-11-19T13:50:13;6.70;;;2.30;;
8230;SDS011;4156;50.908;6.974;2023-11-19T13:52:41;12.90;;;2.83;;
8230;SDS011;4156;50.908;6.974;2023-11-19T13:55:09;9.43;;;2.93;;
8230;SDS011;4156;50.908;6.974;2023-11-19T13:57:36;8.87;;;2.77;;
8230;SDS011;4156;50.908;6.974;2023-11-19T14:00:05;8.17;;;2.73;;
8230;SDS011;4156;50.908;6.974;2023-11-19T14:02:41;10.83;;;2.93;;
8230;SDS011;4156;50.908;6.974;2023-11-19T14:05:07;11.83;;;3.07;;
8230;SDS011;4156;50.908;6.974;2023-11-19T14:07:34;5.70;;;2.10;;
8230;SDS011;4156;50.908;6.974;2023-11-19T14:10:00;8.97;;;3.57;;
8230;SDS011;4156;50.908;6.974;2023-11-19T14:12:25;10.63;;;2.70;;
8230;SDS011;4156;50.908;6.974;2023-11-19T14:14:51;9.10;;;2.83;;
8230;SDS011;4156;50.908;6.974;2023-11-19T14:17:17;12.83;;;3.30;;
8230;SDS011;4156;50.908;6.974;2023-11-19T14:19:43;11.50;;;3.23;;
8230;SDS011;4156;50.908;6.974;2023-11-19T14:22:09;13.87;;;3.30;;
8230;SDS011;4156;50.908;6.974;2023-11-19T14:24:35;7.20;;;2.47;;
8230;SDS011;4156;50.908;6.974;2023-11-19T14:27:01;12.97;;;2.83;;
8230;SDS011;4156;50.908;6.974;2023-11-19T14:29:27;13.07;;;2.80;;
8230;SDS011;4156;50.908;6.974;2023-11-19T14:31:54;9.43;;;2.70;;
8230;SDS011;4156;50.908;6.974;2023-11-19T14:34:20;9.17;;;2.93;;
8230;SDS011;4156;50.908;6.974;2023-11-19T14:36:46;10.50;;;3.60;;
8230;SDS011;4156;50.908;6.974;2023-11-19T14:39:12;7.80;;;2.47;;
8230;SDS011;4156;50.908;6.974;2023-11-19T14:41:38;7.73;;;2.73;;
8230;SDS011;4156;50.908;6.974;2023-11-19T14:44:04;11.47;;;2.77;;
8230;SDS011;4156;50.908;6.974;2023-11-19T14:46:30;7.93;;;2.60;;
8230;SDS011;4156;50.908;6.974;2023-11-19T14:48:56;6.93;;;2.30;;
8230;SDS011;4156;50.908;6.974;2023-11-19T14:51:21;9.70;;;2.77;;
8230;SDS011;4156;50.908;6.974;2023-11-19T14:53:47;6.00;;;2.40;;
8230;SDS011;4156;50.908;6.974;2023-11-19T14:56:12;11.10;;;2.87;;
8230;SDS011;4156;50.908;6.974;2023-11-19T14:58:38;11.20;;;2.60;;
8230;SDS011;4156;50.908;6.974;2023-11-19T15:01:04;8.03;;;2.93;;
8230;SDS011;4156;50.908;6.974;2023-11-19T15:03:30;9.17;;;2.67;;
8230;SDS011;4156;50.908;6.974;2023-11-19T15:05:56;8.77;;;2.37;;
8230;SDS011;4156;50.908;6.974;2023-11-19T15:08:21;5.90;;;2.40;;
8230;SDS011;4156;50.908;6.974;2023-11-19T15:10:47;9.23;;;2.60;;
8230;SDS011;4156;50.908;6.974;2023-11-19T15:13:13;6.13;;;2.60;;
8230;SDS011;4156;50.908;6.974;2023-11-19T15:15:39;7.13;;;2.30;;
8230;SDS011;4156;50.908;6.974;2023-11-19T15:18:04;11.80;;;2.63;;
8230;SDS011;4156;50.908;6.974;2023-11-19T15:20:30;6.23;;;2.20;;
8230;SDS011;4156;50.908;6.974;2023-11-19T15:22:56;12.20;;;3.43;;